createdAt,value
2018-06-24T00:00:18.306Z,7.27
2018-06-24T00:02:45.852Z,5.90
2018-06-24T00:05:13.515Z,5.40
2018-06-24T00:07:41.287Z,5.60
2018-06-24T00:10:08.792Z,15.60
2018-06-24T00:12:36.489Z,9.97
2018-06-24T00:15:04.166Z,7.10
2018-06-24T00:17:31.724Z,8.80
2018-06-24T00:19:59.130Z,8.23
2018-06-24T00:22:26.555Z,5.10
2018-06-24T00:24:54.230Z,4.73
2018-06-24T00:27:21.896Z,5.10
2018-06-24T00:29:49.437Z,6.03
2018-06-24T00:32:17.130Z,5.30
2018-06-24T00:34:44.608Z,4.80
2018-06-24T00:37:12.266Z,5.20
2018-06-24T00:39:39.773Z,8.07
2018-06-24T00:42:07.936Z,7.87
2018-06-24T00:44:35.616Z,4.97
2018-06-24T00:47:03.489Z,5.73
2018-06-24T00:49:31.069Z,6.00
2018-06-24T00:51:58.549Z,5.23
2018-06-24T00:54:26.133Z,6.37
2018-06-24T00:56:53.486Z,5.87
2018-06-24T00:59:27.140Z,4.73
2018-06-24T01:01:54.867Z,4.60
2018-06-24T01:04:22.469Z,5.57
2018-06-24T01:06:49.964Z,5.10
2018-06-24T01:09:18.367Z,6.00
2018-06-24T01:11:46.070Z,5.00
2018-06-24T01:14:13.636Z,5.30
2018-06-24T01:16:41.827Z,5.10
2018-06-24T01:19:09.236Z,5.93
2018-06-24T01:21:36.808Z,5.17
2018-06-24T01:24:04.308Z,5.93
2018-06-24T01:26:31.867Z,5.90
2018-06-24T01:29:00.317Z,5.40
2018-06-24T01:31:27.769Z,5.40
2018-06-24T01:33:55.339Z,5.80
2018-06-24T01:36:22.969Z,4.93
2018-06-24T01:38:50.484Z,5.37
2018-06-24T01:41:18.755Z,6.10
2018-06-24T01:43:46.618Z,4.77
2018-06-24T01:46:14.688Z,5.63
2018-06-24T01:48:42.346Z,5.67
2018-06-24T01:51:09.866Z,5.80
2018-06-24T01:53:37.333Z,5.60
2018-06-24T01:56:04.921Z,5.73
2018-06-24T01:58:32.404Z,5.37
2018-06-24T02:01:00.732Z,5.40
2018-06-24T02:03:28.225Z,12.43
2018-06-24T02:05:55.642Z,6.73
2018-06-24T02:08:23.152Z,5.70
2018-06-24T02:10:50.578Z,6.03
2018-06-24T02:13:18.028Z,5.37
2018-06-24T02:15:45.776Z,5.07
2018-06-24T02:18:13.898Z,6.67
2018-06-24T02:20:41.316Z,7.17
2018-06-24T02:23:08.802Z,5.80
2018-06-24T02:25:36.403Z,5.40
2018-06-24T02:28:04.032Z,6.63
2018-06-24T02:30:31.466Z,7.20
2018-06-24T02:32:58.924Z,9.90
2018-06-24T02:35:26.380Z,16.90
2018-06-24T02:37:53.809Z,19.20
2018-06-24T02:40:21.358Z,15.70
2018-06-24T02:42:48.928Z,7.30
2018-06-24T02:45:16.373Z,5.80
2018-06-24T02:47:44.549Z,6.30
2018-06-24T02:50:12.049Z,6.93
2018-06-24T02:52:39.563Z,6.30
2018-06-24T02:55:07.062Z,7.13
2018-06-24T02:57:34.609Z,5.50
2018-06-24T03:00:02.241Z,7.27
2018-06-24T03:02:29.675Z,6.10
2018-06-24T03:04:58.060Z,5.77
2018-06-24T03:07:25.501Z,5.37
2018-06-24T03:09:53.993Z,5.00
2018-06-24T03:12:21.465Z,16.10
2018-06-24T03:14:50.783Z,7.10
2018-06-24T03:17:18.165Z,6.50
2018-06-24T03:19:45.710Z,6.20
2018-06-24T03:31:54.107Z,6.13
2018-06-24T03:34:22.147Z,6.53
2018-06-24T03:36:49.596Z,6.00
2018-06-24T03:39:17.107Z,6.33
2018-06-24T03:41:44.481Z,6.10
2018-06-24T03:44:12.049Z,5.30
2018-06-24T03:46:39.690Z,5.77
2018-06-24T03:49:07.170Z,5.50
2018-06-24T03:51:34.639Z,5.40
2018-06-24T03:54:02.140Z,6.37
2018-06-24T03:56:29.668Z,5.97
2018-06-24T03:58:57.389Z,5.73
2018-06-24T04:01:24.983Z,5.57
2018-06-24T04:03:52.464Z,5.40
2018-06-24T04:06:19.945Z,6.10
2018-06-24T04:08:47.529Z,5.43
2018-06-24T04:11:15.128Z,6.07
2018-06-24T04:13:42.583Z,6.23
2018-06-24T04:16:10.140Z,6.23
2018-06-24T04:18:44.469Z,5.30
2018-06-24T04:21:12.935Z,5.80
2018-06-24T04:23:41.885Z,6.20
2018-06-24T04:26:10.323Z,6.27
2018-06-24T04:28:37.969Z,6.20
2018-06-24T04:31:05.526Z,7.10
2018-06-24T04:33:33.688Z,6.00
2018-06-24T04:36:01.369Z,5.70
2018-06-24T04:38:29.127Z,6.63
2018-06-24T04:40:57.398Z,5.60
2018-06-24T04:43:24.922Z,6.23
2018-06-24T04:45:52.478Z,10.23
2018-06-24T04:48:19.879Z,8.90
2018-06-24T04:50:47.318Z,10.13
2018-06-24T04:53:14.791Z,6.10
2018-06-24T04:55:42.268Z,6.40
2018-06-24T04:58:09.716Z,6.83
2018-06-24T05:00:37.264Z,5.70
2018-06-24T05:03:04.698Z,6.80
2018-06-24T05:05:32.358Z,5.70
2018-06-24T05:08:01.509Z,5.60
2018-06-24T05:10:28.999Z,5.77
2018-06-24T05:12:56.710Z,6.17
2018-06-24T05:15:24.308Z,5.77
2018-06-24T05:17:51.846Z,7.03
2018-06-24T05:20:19.389Z,7.17
2018-06-24T05:22:46.848Z,7.13
2018-06-24T05:25:14.285Z,6.37
2018-06-24T05:27:42.749Z,6.93
2018-06-24T05:30:11.049Z,9.80
2018-06-24T05:32:38.524Z,8.00
2018-06-24T05:35:06.068Z,8.10
2018-06-24T05:37:33.509Z,10.57
2018-06-24T05:40:01.071Z,10.77
2018-06-24T05:42:28.712Z,8.63
2018-06-24T05:44:56.141Z,6.80
2018-06-24T05:47:23.648Z,7.17
2018-06-24T05:49:51.320Z,7.73
2018-06-24T05:52:18.986Z,7.13
2018-06-24T05:54:46.512Z,7.10
2018-06-24T05:57:14.491Z,7.80
2018-06-24T05:59:41.912Z,9.13
2018-06-24T06:02:09.500Z,7.20
2018-06-24T06:04:36.901Z,7.20
2018-06-24T06:07:05.550Z,7.00
2018-06-24T06:09:33.020Z,8.23
2018-06-24T06:12:00.515Z,9.40
2018-06-24T06:14:28.093Z,8.07
2018-06-24T06:16:56.047Z,7.20
2018-06-24T06:19:24.172Z,6.20
2018-06-24T06:21:51.791Z,7.23
2018-06-24T06:24:19.236Z,6.67
2018-06-24T06:26:46.829Z,7.50
2018-06-24T06:29:14.582Z,6.43
2018-06-24T06:31:42.137Z,6.80
2018-06-24T06:34:09.689Z,7.23
2018-06-24T06:36:37.274Z,6.60
2018-06-24T06:39:07.187Z,6.70
2018-06-24T06:41:34.723Z,6.30
2018-06-24T06:44:02.414Z,6.77
2018-06-24T06:46:30.088Z,6.33
2018-06-24T06:48:57.809Z,7.20
2018-06-24T06:51:25.396Z,7.03
2018-06-24T06:53:52.921Z,6.63
2018-06-24T06:56:20.430Z,7.10
2018-06-24T06:58:47.992Z,7.87
2018-06-24T07:01:15.594Z,6.73
2018-06-24T07:03:43.732Z,6.50
2018-06-24T07:06:11.309Z,6.63
2018-06-24T07:08:39.020Z,5.77
2018-06-24T07:11:07.238Z,5.90
2018-06-24T07:13:34.677Z,6.07
2018-06-24T07:16:02.314Z,6.73
2018-06-24T07:18:29.880Z,6.00
2018-06-24T07:20:57.390Z,6.10
2018-06-24T07:23:24.994Z,6.00
2018-06-24T07:25:52.614Z,6.30
2018-06-24T07:28:20.525Z,6.80
2018-06-24T07:30:47.952Z,6.50
2018-06-24T07:33:15.998Z,6.40
2018-06-24T07:35:43.563Z,6.40
2018-06-24T07:38:11.171Z,7.70
2018-06-24T07:40:39.623Z,9.10
2018-06-24T07:43:07.360Z,10.40
2018-06-24T07:45:34.870Z,9.13
2018-06-24T07:48:02.639Z,9.30
2018-06-24T07:51:54.870Z,7.50
2018-06-24T07:54:23.012Z,7.37
2018-06-24T07:56:50.942Z,7.50
2018-06-24T07:59:20.100Z,8.53
2018-06-24T08:01:47.614Z,5.67
2018-06-24T08:04:15.112Z,7.37
2018-06-24T08:06:42.837Z,7.27
2018-06-24T08:09:11.712Z,6.20
2018-06-24T08:11:40.163Z,12.17
2018-06-24T08:14:07.764Z,9.40
2018-06-24T08:16:35.340Z,9.77
2018-06-24T08:19:03.892Z,7.93
2018-06-24T08:21:31.304Z,10.10
2018-06-24T08:23:58.773Z,7.43
2018-06-24T08:26:26.219Z,8.20
2018-06-24T08:28:53.704Z,8.47
2018-06-24T08:31:21.554Z,10.93
2018-06-24T08:33:50.082Z,9.87
2018-06-24T08:36:18.420Z,8.13
2018-06-24T08:38:47.897Z,6.60
2018-06-24T08:41:15.857Z,7.47
2018-06-24T08:43:43.351Z,11.30
2018-06-24T08:46:10.803Z,9.33
2018-06-24T08:48:38.425Z,8.20
2018-06-24T08:51:06.883Z,6.70
2018-06-24T08:53:34.809Z,8.30
2018-06-24T08:56:02.511Z,12.47
2018-06-24T08:58:30.662Z,12.27
2018-06-24T09:00:58.561Z,11.57
2018-06-24T09:03:26.256Z,9.00
2018-06-24T09:05:53.852Z,10.30
2018-06-24T09:08:21.394Z,7.73
2018-06-24T09:10:49.749Z,6.40
2018-06-24T09:13:17.239Z,9.80
2018-06-24T09:15:44.953Z,8.10
2018-06-24T09:18:12.371Z,7.90
2018-06-24T09:20:40.559Z,9.03
2018-06-24T09:23:08.736Z,8.00
2018-06-24T09:25:36.557Z,8.00
2018-06-24T09:28:04.425Z,8.30
2018-06-24T09:30:33.041Z,7.77
2018-06-24T09:33:00.774Z,9.00
2018-06-24T09:35:29.025Z,7.23
2018-06-24T09:37:56.780Z,8.90
2018-06-24T09:40:24.364Z,8.33
2018-06-24T09:42:52.021Z,7.17
2018-06-24T09:45:20.767Z,7.83
2018-06-24T09:47:49.484Z,7.33
2018-06-24T09:50:17.203Z,7.57
2018-06-24T09:52:45.522Z,6.90
2018-06-24T09:55:13.138Z,6.93
2018-06-24T09:57:40.830Z,6.53
2018-06-24T10:00:14.083Z,6.30
2018-06-24T10:02:41.957Z,7.63
2018-06-24T10:05:09.727Z,7.90
2018-06-24T10:07:38.052Z,8.40
2018-06-24T10:10:06.018Z,7.90
2018-06-24T10:12:34.950Z,8.90
2018-06-24T10:15:03.698Z,9.70
2018-06-24T10:17:31.384Z,7.73
2018-06-24T10:19:58.876Z,9.43
2018-06-24T10:22:26.456Z,8.53
2018-06-24T10:24:54.093Z,8.23
2018-06-24T10:27:21.752Z,8.80
2018-06-24T10:29:49.285Z,9.10
2018-06-24T10:32:17.656Z,8.57
2018-06-24T10:34:45.561Z,6.90
2018-06-24T10:37:13.273Z,5.77
2018-06-24T10:39:42.840Z,7.67
2018-06-24T10:42:10.378Z,7.67
2018-06-24T10:44:38.026Z,6.13
2018-06-24T10:47:05.831Z,8.90
2018-06-24T10:49:33.603Z,8.40
2018-06-24T10:52:03.618Z,7.40
2018-06-24T10:54:32.917Z,9.40
2018-06-24T10:57:01.407Z,6.50
2018-06-24T10:59:29.202Z,6.63
2018-06-24T11:01:57.935Z,7.63
2018-06-24T11:04:25.631Z,8.07
2018-06-24T11:06:53.971Z,6.00
2018-06-24T11:09:21.621Z,6.67
2018-06-24T11:11:49.161Z,7.07
2018-06-24T11:14:16.818Z,5.87
2018-06-24T11:16:44.450Z,5.43
2018-06-24T11:19:12.191Z,5.20
2018-06-24T11:21:40.148Z,5.80
2018-06-24T11:24:07.714Z,5.63
2018-06-24T11:26:38.511Z,5.30
2018-06-24T11:29:06.330Z,5.87
2018-06-24T11:31:33.893Z,4.90
2018-06-24T11:34:01.474Z,5.03
2018-06-24T11:36:28.992Z,5.00
2018-06-24T11:38:57.604Z,4.20
2018-06-24T11:41:25.496Z,4.47
2018-06-24T11:43:54.604Z,4.27
2018-06-24T11:46:24.404Z,4.40
2018-06-24T11:48:52.022Z,4.53
2018-06-24T11:51:19.588Z,4.30
2018-06-24T11:53:47.201Z,3.43
2018-06-24T11:56:14.805Z,3.70
2018-06-24T11:58:42.946Z,3.60
2018-06-24T12:01:10.460Z,3.90
2018-06-24T12:03:38.120Z,3.40
2018-06-24T12:06:05.695Z,3.53
2018-06-24T12:08:33.501Z,3.50
2018-06-24T12:11:01.073Z,3.90
2018-06-24T12:13:31.282Z,3.70
2018-06-24T12:15:58.848Z,4.23
2018-06-24T12:18:26.641Z,3.53
2018-06-24T12:20:54.277Z,3.73
2018-06-24T12:23:21.869Z,4.20
2018-06-24T12:25:49.346Z,4.37
2018-06-24T12:28:16.900Z,3.50
2018-06-24T12:30:44.521Z,3.40
2018-06-24T12:33:12.495Z,3.70
2018-06-24T12:35:40.063Z,4.07
2018-06-24T12:38:08.361Z,5.50
2018-06-24T12:40:36.139Z,3.63
2018-06-24T12:43:04.735Z,4.03
2018-06-24T12:45:32.858Z,3.33
2018-06-24T12:48:00.491Z,3.87
2018-06-24T12:50:28.154Z,4.53
2018-06-24T12:52:56.394Z,3.73
2018-06-24T12:55:24.869Z,4.40
2018-06-24T12:57:53.127Z,3.50
2018-06-24T13:00:21.506Z,3.93
2018-06-24T13:02:48.562Z,4.50
2018-06-24T13:05:16.143Z,4.10
2018-06-24T13:07:43.708Z,4.10
2018-06-24T13:10:11.363Z,3.87
2018-06-24T13:12:39.014Z,4.43
2018-06-24T13:15:07.273Z,4.70
2018-06-24T13:17:35.040Z,4.27
2018-06-24T13:20:03.011Z,4.67
2018-06-24T13:22:31.375Z,4.50
2018-06-24T13:24:58.939Z,4.70
2018-06-24T13:27:27.130Z,5.70
2018-06-24T13:29:54.693Z,6.20
2018-06-24T13:32:23.050Z,5.77
2018-06-24T13:34:51.584Z,5.10
2018-06-24T13:37:19.241Z,5.50
2018-06-24T13:39:46.994Z,6.63
2018-06-24T13:42:15.451Z,5.30
2018-06-24T13:44:43.735Z,6.07
2018-06-24T13:47:13.356Z,6.57
2018-06-24T13:49:41.425Z,6.33
2018-06-24T13:52:10.672Z,7.23
2018-06-24T13:54:38.869Z,6.33
2018-06-24T13:57:06.554Z,7.40
2018-06-24T13:59:35.519Z,6.77
2018-06-24T14:02:04.102Z,8.70
2018-06-24T14:04:32.178Z,11.83
2018-06-24T14:06:59.876Z,12.00
2018-06-24T14:09:27.796Z,13.87
2018-06-24T14:11:57.701Z,14.53
2018-06-24T14:14:25.489Z,10.43
2018-06-24T14:16:53.561Z,8.20
2018-06-24T14:19:21.071Z,10.67
2018-06-24T14:21:48.516Z,13.00
2018-06-24T14:24:16.634Z,11.53
2018-06-24T14:26:44.500Z,9.13
2018-06-24T14:29:12.070Z,7.10
2018-06-24T14:31:40.249Z,12.13
2018-06-24T14:34:07.841Z,11.80
2018-06-24T14:36:35.616Z,8.60
2018-06-24T14:39:05.589Z,8.90
2018-06-24T14:41:33.917Z,6.67
2018-06-24T14:44:01.633Z,6.37
2018-06-24T14:46:31.239Z,7.60
2018-06-24T14:48:59.442Z,7.17
2018-06-24T14:51:27.622Z,7.20
2018-06-24T14:53:56.383Z,6.40
2018-06-24T14:56:24.651Z,7.50
2018-06-24T14:58:52.953Z,6.70
2018-06-24T15:01:21.268Z,8.13
2018-06-24T15:03:48.798Z,8.20
2018-06-24T15:06:16.548Z,6.97
2018-06-24T15:08:44.458Z,5.13
2018-06-24T15:11:12.777Z,6.60
2018-06-24T15:13:41.299Z,5.10
2018-06-24T15:16:10.044Z,4.80
2018-06-24T15:18:37.711Z,4.83
2018-06-24T15:21:06.407Z,5.90
2018-06-24T15:23:33.975Z,4.60
2018-06-24T15:26:02.140Z,4.80
2018-06-24T15:28:30.612Z,4.63
2018-06-24T15:30:59.375Z,4.00
2018-06-24T15:33:27.692Z,4.73
2018-06-24T15:35:55.361Z,5.10
2018-06-24T15:38:24.530Z,4.83
2018-06-24T15:40:52.904Z,5.20
2018-06-24T15:43:22.291Z,6.13
2018-06-24T15:45:50.779Z,5.10
2018-06-24T15:48:19.343Z,4.47
2018-06-24T15:50:46.898Z,4.47
2018-06-24T15:53:15.785Z,3.90
2018-06-24T15:55:44.699Z,5.53
2018-06-24T15:58:13.231Z,4.10
2018-06-24T16:00:41.920Z,4.37
2018-06-24T16:03:09.548Z,3.67
2018-06-24T16:05:37.751Z,3.77
2018-06-24T16:08:05.777Z,3.70
2018-06-24T16:10:34.848Z,4.40
2018-06-24T16:13:05.213Z,4.23
2018-06-24T16:15:33.392Z,3.73
2018-06-24T16:18:06.908Z,3.33
2018-06-24T16:20:37.053Z,3.87
2018-06-24T16:23:04.696Z,3.90
2018-06-24T16:25:32.383Z,4.20
2018-06-24T16:27:59.986Z,4.90
2018-06-24T16:30:27.876Z,4.73
2018-06-24T16:32:55.305Z,4.30
2018-06-24T16:35:23.717Z,4.47
2018-06-24T16:37:51.928Z,3.87
2018-06-24T16:40:19.704Z,4.47
2018-06-24T16:42:47.859Z,4.63
2018-06-24T16:45:16.983Z,4.60
2018-06-24T16:47:46.897Z,4.73
2018-06-24T16:50:15.333Z,4.27
2018-06-24T16:52:42.818Z,4.17
2018-06-24T16:55:11.107Z,3.83
2018-06-24T16:57:38.828Z,4.30
2018-06-24T17:00:07.212Z,3.47
2018-06-24T17:02:35.740Z,4.27
2018-06-24T17:05:03.706Z,3.40
2018-06-24T17:07:33.319Z,4.20
2018-06-24T17:10:02.334Z,4.03
2018-06-24T17:12:30.076Z,4.20
2018-06-24T17:15:01.046Z,4.60
2018-06-24T17:17:28.991Z,4.50
2018-06-24T17:19:57.329Z,4.37
2018-06-24T17:22:24.981Z,5.00
2018-06-24T17:24:52.600Z,4.90
2018-06-24T17:27:21.936Z,5.83
2018-06-24T17:29:51.336Z,4.50
2018-06-24T17:32:19.696Z,6.03
2018-06-24T17:34:47.408Z,4.87
2018-06-24T17:37:15.660Z,5.07
2018-06-24T17:39:45.300Z,5.03
2018-06-24T17:42:12.924Z,4.50
2018-06-24T17:44:41.193Z,4.57
2018-06-24T17:47:10.542Z,5.43
2018-06-24T17:49:38.653Z,5.57
2018-06-24T17:52:06.251Z,4.80
2018-06-24T17:54:33.824Z,4.90
2018-06-24T17:57:02.762Z,5.57
2018-06-24T17:59:31.045Z,5.20
2018-06-24T18:01:58.843Z,4.83
2018-06-24T18:04:27.194Z,5.60
2018-06-24T18:06:55.487Z,4.73
2018-06-24T18:09:23.947Z,5.30
2018-06-24T18:11:51.530Z,5.00
2018-06-24T18:14:19.845Z,5.37
2018-06-24T18:16:48.299Z,6.20
2018-06-24T18:19:16.624Z,5.40
2018-06-24T18:21:44.629Z,4.90
2018-06-24T18:24:12.317Z,4.93
2018-06-24T18:26:42.294Z,5.10
2018-06-24T18:29:11.080Z,5.33
2018-06-24T18:31:38.959Z,6.20
2018-06-24T18:34:07.957Z,5.33
2018-06-24T18:36:36.222Z,5.37
2018-06-24T18:39:06.942Z,5.60
2018-06-24T18:41:35.634Z,4.60
2018-06-24T18:44:04.772Z,5.80
2018-06-24T18:46:38.394Z,5.43
2018-06-24T18:49:07.706Z,5.30
2018-06-24T18:51:35.478Z,6.00
2018-06-24T18:54:03.704Z,5.80
2018-06-24T18:56:31.459Z,6.10
2018-06-24T18:58:59.419Z,6.50
2018-06-24T19:01:27.024Z,11.23
2018-06-24T19:03:57.045Z,11.47
2018-06-24T19:06:25.992Z,9.80
2018-06-24T19:08:54.409Z,7.00
2018-06-24T19:11:22.676Z,5.80
2018-06-24T19:13:53.206Z,5.47
2018-06-24T19:16:21.139Z,5.47
2018-06-24T19:18:50.054Z,5.00
2018-06-24T19:21:18.498Z,5.17
2018-06-24T19:23:46.134Z,4.70
2018-06-24T19:26:14.084Z,3.90
2018-06-24T19:28:41.639Z,5.10
2018-06-24T19:31:09.367Z,3.80
2018-06-24T19:33:37.224Z,4.30
2018-06-24T19:36:05.652Z,3.80
2018-06-24T19:38:33.773Z,3.90
2018-06-24T19:41:02.234Z,3.50
2018-06-24T19:43:29.753Z,4.40
2018-06-24T19:45:57.855Z,4.07
2018-06-24T19:48:27.262Z,4.53
2018-06-24T19:50:54.822Z,4.50
2018-06-24T19:53:23.336Z,3.53
2018-06-24T19:55:51.526Z,3.70
2018-06-24T19:58:20.871Z,3.70
2018-06-24T20:00:50.479Z,4.20
2018-06-24T20:03:19.410Z,4.37
2018-06-24T20:05:48.351Z,5.07
2018-06-24T20:08:15.943Z,5.63
2018-06-24T20:10:43.832Z,4.63
2018-06-24T20:13:12.218Z,4.73
2018-06-24T20:15:41.510Z,5.13
2018-06-24T20:18:09.248Z,5.17
2018-06-24T20:20:37.759Z,4.70
2018-06-24T20:23:05.345Z,5.73
2018-06-24T20:25:32.947Z,5.37
2018-06-24T20:28:01.610Z,5.30
2018-06-24T20:30:29.862Z,5.90
2018-06-24T20:32:58.644Z,5.33
2018-06-24T20:35:26.837Z,4.93
2018-06-24T20:37:54.422Z,6.47
2018-06-24T20:40:21.953Z,6.27
2018-06-24T20:42:49.474Z,7.77
2018-06-24T20:45:17.094Z,12.97
2018-06-24T20:47:45.768Z,10.37
2018-06-24T20:50:13.610Z,6.87
2018-06-24T20:52:41.079Z,7.13
2018-06-24T20:55:08.639Z,6.17
2018-06-24T20:57:39.116Z,6.80
2018-06-24T21:00:07.965Z,5.53
2018-06-24T21:02:35.922Z,6.43
2018-06-24T21:05:05.629Z,6.80
2018-06-24T21:07:33.088Z,7.77
2018-06-24T21:10:02.455Z,7.90
2018-06-24T21:12:30.058Z,6.73
2018-06-24T21:15:01.411Z,6.23
2018-06-24T21:17:32.735Z,6.30
2018-06-24T21:20:05.605Z,6.90
2018-06-24T21:22:34.733Z,7.60
2018-06-24T21:25:03.820Z,6.70
2018-06-24T21:27:33.541Z,6.70
2018-06-24T21:30:01.004Z,6.50
2018-06-24T21:32:29.281Z,6.37
2018-06-24T21:34:58.484Z,6.47
2018-06-24T21:37:27.309Z,6.33
2018-06-24T21:39:54.846Z,6.50
2018-06-24T21:42:25.864Z,6.60
2018-06-24T21:44:54.361Z,6.97
2018-06-24T21:47:22.001Z,6.70
2018-06-24T21:49:50.320Z,6.93
2018-06-24T21:52:19.749Z,6.30
2018-06-24T21:54:47.352Z,7.87
2018-06-24T21:57:18.289Z,5.80
2018-06-24T21:59:49.440Z,6.13
2018-06-24T22:02:17.009Z,6.67
2018-06-24T22:04:45.457Z,6.27
2018-06-24T22:07:14.294Z,5.83
2018-06-24T22:09:42.513Z,6.07
2018-06-24T22:12:11.687Z,6.30
2018-06-24T22:14:39.847Z,6.13
2018-06-24T22:17:08.171Z,7.57
2018-06-24T22:19:36.763Z,6.93
2018-06-24T22:22:05.623Z,5.70
2018-06-24T22:24:34.334Z,5.13
2018-06-24T22:27:02.505Z,5.20
2018-06-24T22:29:31.598Z,6.20
2018-06-24T22:31:59.203Z,6.00
2018-06-24T22:34:27.583Z,6.13
2018-06-24T22:36:56.233Z,6.13
2018-06-24T22:39:23.770Z,5.77
2018-06-24T22:41:51.359Z,5.60
2018-06-24T22:44:19.786Z,4.60
2018-06-24T22:46:48.094Z,6.57
2018-06-24T22:49:16.565Z,5.80
2018-06-24T22:51:44.731Z,6.53
2018-06-24T22:54:12.380Z,6.40
2018-06-24T22:56:40.160Z,4.73
2018-06-24T22:59:19.339Z,5.50
2018-06-24T23:01:47.864Z,6.10
2018-06-24T23:04:16.183Z,5.67
2018-06-24T23:06:44.327Z,5.53
2018-06-24T23:09:12.934Z,4.80
2018-06-24T23:11:40.448Z,5.10
2018-06-24T23:14:07.917Z,5.20
2018-06-24T23:16:36.441Z,4.67
2018-06-24T23:19:04.466Z,4.40
2018-06-24T23:21:32.509Z,4.73
2018-06-24T23:24:00.040Z,5.40
2018-06-24T23:26:28.454Z,4.93
2018-06-24T23:28:57.716Z,6.40
2018-06-24T23:31:26.871Z,5.00
2018-06-24T23:33:54.989Z,4.50
2018-06-24T23:36:23.555Z,5.10
2018-06-24T23:38:52.774Z,6.93
2018-06-24T23:41:20.999Z,4.80
2018-06-24T23:43:50.604Z,6.00
2018-06-24T23:46:21.209Z,8.27
2018-06-24T23:48:49.568Z,5.07
2018-06-24T23:51:17.475Z,6.30
2018-06-24T23:53:45.571Z,6.97
2018-06-24T23:56:13.433Z,5.70
2018-06-24T23:58:41.740Z,6.60
